Time;durP1;ratioP1;P1;durP2;ratioP2;P2;SDS_P1;SDS_P2;PMS_P1;PMS_P2;Temp;Humidity;BMP_temperature;BMP_pressure;BME280_temperature;BME280_humidity;BME280_pressure;Samples;Min_cycle;Max_cycle;Signal;HPM_P1;HPM_P2
2023/05/24 00:01:55;;;;;;;14.95;4.90;;;;;;;14.66;51.11;101074.06;4050011;29;20045;-62
2023/05/24 00:03:59;;;;;;;14.13;4.63;;;;;;;14.60;51.31;101074.88;4065637;29;20083;-62
2023/05/24 00:06:05;;;;;;;13.45;4.57;;;;;;;14.66;49.83;101067.09;4066515;29;20039;-62
2023/05/24 00:08:08;;;;;;;14.68;4.45;;;;;;;14.61;50.17;101071.41;4067196;29;20783;-62
2023/05/24 00:10:12;;;;;;;15.55;3.67;;;;;;;14.53;50.34;101072.16;4064458;29;20062;-62
2023/05/24 00:12:16;;;;;;;17.45;4.55;;;;;;;14.53;51.51;101072.16;4066183;29;20043;-62
2023/05/24 00:14:19;;;;;;;12.82;4.22;;;;;;;14.59;50.83;101070.50;4067553;29;20048;-62
2023/05/24 00:16:22;;;;;;;10.68;4.18;;;;;;;14.63;50.08;101072.31;4079763;29;20043;-62
2023/05/24 00:18:25;;;;;;;12.65;4.07;;;;;;;14.58;50.34;101071.34;4067933;29;20036;-62
2023/05/24 00:20:28;;;;;;;17.58;4.70;;;;;;;14.57;50.33;101071.34;4065905;29;20040;-61
2023/05/24 00:22:30;;;;;;;10.93;4.05;;;;;;;14.42;50.62;101065.13;4063345;29;20104;-62
2023/05/24 00:24:33;;;;;;;12.38;4.75;;;;;;;14.42;50.49;101069.47;4064079;29;20039;-61
2023/05/24 00:26:36;;;;;;;12.45;4.32;;;;;;;14.49;49.87;101068.66;4096826;29;20461;-62
2023/05/24 00:28:41;;;;;;;11.15;4.07;;;;;;;14.43;49.82;101066.00;4067556;29;20095;-62
2023/05/24 00:30:44;;;;;;;10.27;3.75;;;;;;;14.34;50.60;101065.91;4062232;29;20032;-62
2023/05/24 00:32:47;;;;;;;10.23;4.22;;;;;;;14.35;50.47;101062.44;4081207;29;20118;-62
2023/05/24 00:34:50;;;;;;;13.02;4.80;;;;;;;14.40;50.70;101066.00;4095122;29;20050;-62
2023/05/24 00:36:52;;;;;;;15.93;5.05;;;;;;;14.45;50.19;101067.75;4095596;28;20055;-61
2023/05/24 00:38:55;;;;;;;10.43;4.10;;;;;;;14.40;50.69;101059.00;4066196;29;20403;-62
2023/05/24 00:41:00;;;;;;;12.10;4.38;;;;;;;14.35;51.08;101054.59;4097676;29;20039;-62
2023/05/24 00:43:05;;;;;;;16.45;4.15;;;;;;;14.38;50.25;101057.25;4065985;29;20036;-62
2023/05/24 00:45:10;;;;;;;15.00;4.57;;;;;;;14.33;50.62;101049.34;4080212;29;20075;-62
2023/05/24 00:47:13;;;;;;;15.38;5.05;;;;;;;14.30;51.07;101049.34;4078653;29;20138;-62
2023/05/24 00:49:17;;;;;;;13.65;3.97;;;;;;;14.27;51.18;101044.94;4080401;29;20039;-63
2023/05/24 00:51:21;;;;;;;16.65;4.30;;;;;;;14.38;50.52;101041.53;4094068;29;20078;-62
2023/05/24 00:53:24;;;;;;;11.32;3.92;;;;;;;14.36;50.82;101044.16;4066499;29;20168;-62
2023/05/24 00:55:26;;;;;;;12.75;4.35;;;;;;;14.38;51.01;101041.53;4080846;29;20039;-62
2023/05/24 00:57:29;;;;;;;15.85;4.38;;;;;;;14.42;50.33;101041.56;4077572;29;20070;-62
2023/05/24 00:59:32;;;;;;;9.85;3.40;;;;;;;14.31;50.01;101031.03;4066596;29;20495;-62
2023/05/24 01:01:37;;;;;;;15.73;4.68;;;;;;;14.37;50.21;101035.44;4073405;29;20097;-62
2023/05/24 01:03:40;;;;;;;15.40;4.18;;;;;;;14.20;50.21;101031.81;4064524;29;20466;-62
2023/05/24 01:05:46;;;;;;;10.65;3.80;;;;;;;14.20;49.95;101031.81;4064526;29;20040;-62
2023/05/24 01:07:57;;;;;;;16.73;4.28;;;;;;;14.30;50.03;101034.50;4068695;29;20115;-62
2023/05/24 01:10:09;;;;;;;13.93;4.43;;;;;;;14.28;49.07;101033.63;4066028;29;20432;-62
2023/05/24 01:12:24;;;;;;;14.50;3.97;;;;;;;14.27;49.07;101031.00;4075682;29;20075;-62
2023/05/24 01:14:35;;;;;;;16.65;4.18;;;;;;;14.24;49.69;101030.97;4090700;29;20070;-62
2023/05/24 01:16:45;;;;;;;13.65;4.50;;;;;;;14.07;49.80;101043.91;4080795;29;20557;-62
2023/05/24 01:18:54;;;;;;;17.20;5.05;;;;;;;14.04;49.98;101038.66;4063960;29;20040;-62
2023/05/24 01:21:06;;;;;;;15.05;4.45;;;;;;;13.98;49.79;101041.22;4077405;29;20482;-62
2023/05/24 01:23:29;;;;;;;13.25;3.65;;;;;;;13.90;50.30;101041.13;4095332;29;20131;-62
2023/05/24 01:25:49;;;;;;;11.88;3.92;;;;;;;13.86;50.37;101042.84;4093675;29;20457;-62
2023/05/24 01:27:54;;;;;;;11.98;4.00;;;;;;;13.90;50.11;101036.78;4063283;29;20139;-62
2023/05/24 01:30:00;;;;;;;14.77;3.80;;;;;;;13.95;50.08;101045.53;4079410;29;20565;-62
2023/05/24 01:32:03;;;;;;;;;;;;;;;13.75;50.93;101040.09;4066235;29;20096;-62
2023/05/24 01:34:06;;;;;;;16.20;3.95;;;;;;;13.92;50.62;101047.25;4060319;29;20366;-62
2023/05/24 01:36:09;;;;;;;14.95;4.72;;;;;;;13.75;50.88;101057.53;4095321;29;20442;-62
2023/05/24 01:38:15;;;;;;;16.83;5.25;;;;;;;13.66;50.71;101052.19;4062774;29;20075;-63
2023/05/24 01:40:18;;;;;;;13.23;3.80;;;;;;;13.64;51.00;101056.50;4077997;29;20203;-62
2023/05/24 01:42:26;;;;;;;13.27;4.00;;;;;;;13.57;50.92;101051.22;4076880;29;20044;-62
2023/05/24 01:44:37;;;;;;;17.58;4.47;;;;;;;13.60;51.32;101051.25;4063719;29;20387;-62
2023/05/24 01:46:40;;;;;;;15.73;4.55;;;;;;;13.72;51.28;101062.72;4062163;29;20140;-62
2023/05/24 01:48:54;;;;;;;12.05;3.95;;;;;;;13.66;51.55;101060.03;4091075;28;20078;-63
2023/05/24 01:50:59;;;;;;;10.98;4.03;;;;;;;13.66;51.40;101071.34;4059826;29;20036;-62
2023/05/24 01:53:08;;;;;;;12.60;3.80;;;;;;;13.73;51.40;101077.53;4078411;29;20054;-62
2023/05/24 01:55:14;;;;;;;16.08;4.32;;;;;;;13.71;51.66;101074.00;4080725;29;20039;-62
2023/05/24 01:57:20;;;;;;;13.88;4.75;;;;;;;13.63;52.10;101067.84;4095937;29;20059;-62
2023/05/24 01:59:25;;;;;;;12.52;4.57;;;;;;;13.62;52.00;101069.56;4081198;29;20087;-62
2023/05/24 02:01:31;;;;;;;;;;;;;;;13.55;51.69;101072.97;4076847;29;20637;-62
2023/05/24 02:03:36;;;;;;;10.27;3.45;;;;;;;13.58;51.02;101073.88;4063928;29;19961;-62
2023/05/24 02:05:39;;;;;;;11.77;4.28;;;;;;;13.56;50.64;101066.88;4079716;29;20547;-62
2023/05/24 02:07:42;;;;;;;16.90;4.07;;;;;;;13.57;50.58;101072.13;4080919;29;20040;-62
2023/05/24 02:09:45;;;;;;;16.50;3.83;;;;;;;13.51;50.46;101066.84;4080145;29;20536;-62
2023/05/24 02:11:48;;;;;;;10.07;3.60;;;;;;;13.43;50.47;101065.84;4076806;29;20115;-62
2023/05/24 02:13:52;;;;;;;15.57;3.95;;;;;;;13.25;51.64;101079.53;4093824;29;20555;-62
2023/05/24 02:15:54;;;;;;;13.63;4.00;;;;;;;13.25;50.86;101080.41;4079898;29;20430;-62
2023/05/24 02:18:02;;;;;;;14.02;4.43;;;;;;;13.40;50.34;101071.94;4079821;29;20043;-62
2023/05/24 02:20:07;;;;;;;11.38;4.15;;;;;;;13.21;50.83;101072.50;4078197;29;20035;-62
2023/05/24 02:22:11;;;;;;;9.60;3.85;;;;;;;13.12;51.43;101068.03;4094306;29;20042;-62
2023/05/24 02:24:15;;;;;;;17.45;4.50;;;;;;;13.13;51.48;101076.75;4064297;29;20048;-62
2023/05/24 02:26:18;;;;;;;13.05;3.97;;;;;;;13.14;51.48;101071.56;4064345;29;20786;-62
2023/05/24 02:28:21;;;;;;;24.95;4.63;;;;;;;13.21;51.21;101070.75;4063254;29;20044;-62
2023/05/24 02:30:24;;;;;;;17.33;3.72;;;;;;;13.13;51.75;101074.13;4077220;29;20062;-62
2023/05/24 02:32:27;;;;;;;13.57;3.88;;;;;;;13.04;51.88;101074.88;4065132;29;20029;-62
2023/05/24 02:34:31;;;;;;;15.85;4.15;;;;;;;13.02;52.05;101080.09;4079106;29;20750;-62
2023/05/24 02:36:35;;;;;;;16.23;4.00;;;;;;;13.02;52.25;101090.53;4079672;29;20075;-62
2023/05/24 02:38:38;;;;;;;13.43;4.57;;;;;;;12.93;52.31;101080.81;4096010;29;20047;-62
2023/05/24 02:40:41;;;;;;;14.68;3.95;;;;;;;12.99;52.29;101082.66;4093027;29;20203;-62
2023/05/24 02:42:44;;;;;;;10.70;4.05;;;;;;;12.93;52.50;101083.44;4091243;29;20098;-62
2023/05/24 02:44:48;;;;;;;15.57;3.80;;;;;;;13.01;52.16;101075.75;4093655;29;20051;-62
2023/05/24 02:46:51;;;;;;;10.98;3.97;;;;;;;12.96;52.30;101082.63;4076441;29;20044;-62
2023/05/24 02:48:54;;;;;;;12.07;3.88;;;;;;;12.99;52.38;101077.44;4063149;29;20040;-62
2023/05/24 02:51:01;;;;;;;9.85;3.13;;;;;;;12.93;52.24;101073.00;4065913;29;20063;-63
2023/05/24 02:53:05;;;;;;;12.32;4.22;;;;;;;12.88;52.67;101073.81;4060263;29;20048;-62
2023/05/24 02:55:09;;;;;;;14.73;3.97;;;;;;;12.83;52.96;101076.34;4079055;29;20070;-62
2023/05/24 02:57:12;;;;;;;12.07;3.88;;;;;;;12.86;52.77;101078.13;4063580;29;20455;-62
2023/05/24 02:59:18;;;;;;;16.42;4.13;;;;;;;12.77;53.31;101080.59;4079038;29;20070;-62
2023/05/24 03:01:22;;;;;;;24.27;4.22;;;;;;;12.70;53.67;101079.63;4092526;29;20063;-62
2023/05/24 03:03:28;;;;;;;15.07;4.13;;;;;;;12.75;53.24;101080.56;4079524;29;20130;-62
2023/05/24 03:05:31;;;;;;;10.82;3.38;;;;;;;12.72;53.01;101078.78;4079348;29;20044;-62
2023/05/24 03:07:35;;;;;;;15.32;4.65;;;;;;;12.69;53.48;101072.66;4078876;29;20067;-62
2023/05/24 03:09:38;;;;;;;14.45;4.32;;;;;;;12.75;53.29;101075.34;4080662;29;20070;-63
2023/05/24 03:11:41;;;;;;;9.15;3.92;;;;;;;12.72;53.24;101068.34;4078676;29;20087;-62
2023/05/24 03:13:44;;;;;;;15.27;3.97;;;;;;;12.73;53.52;101077.03;4092501;29;20043;-62
2023/05/24 03:15:47;;;;;;;15.13;4.00;;;;;;;12.88;52.58;101079.91;4077121;29;20080;-62
2023/05/24 03:17:50;;;;;;;17.80;4.38;;;;;;;12.72;52.90;101073.56;4074606;29;20067;-62
2023/05/24 03:19:53;;;;;;;11.82;4.05;;;;;;;12.57;53.11;101073.31;4063721;29;20132;-62
2023/05/24 03:21:56;;;;;;;10.27;3.78;;;;;;;12.73;52.87;101074.44;4079443;29;20462;-62
2023/05/24 03:24:00;;;;;;;15.35;4.40;;;;;;;12.58;53.23;101075.94;4091947;29;20051;-62
2023/05/24 03:26:03;;;;;;;12.57;4.10;;;;;;;12.65;53.47;101078.69;4086340;29;20046;-62
2023/05/24 03:28:06;;;;;;;13.02;3.80;;;;;;;12.74;53.26;101076.22;4063920;29;20044;-62
2023/05/24 03:30:10;;;;;;;13.48;4.07;;;;;;;12.64;53.50;101069.97;4061823;29;20041;-62
2023/05/24 03:32:24;;;;;;;16.23;4.18;;;;;;;12.68;52.97;101076.97;4062623;29;20159;-63
2023/05/24 03:34:27;;;;;;;14.82;4.15;;;;;;;12.61;53.11;101079.47;4077316;29;20044;-62
2023/05/24 03:36:31;;;;;;;14.05;4.28;;;;;;;12.51;53.68;101081.06;4090975;29;20047;-62
2023/05/24 03:38:34;;;;;;;10.50;3.70;;;;;;;12.57;53.99;101079.44;4061581;29;20044;-62
2023/05/24 03:40:38;;;;;;;16.65;4.32;;;;;;;12.51;54.11;101084.56;4092785;29;20474;-62
2023/05/24 03:42:47;;;;;;;12.32;3.78;;;;;;;12.50;54.30;101074.97;4074527;29;20035;-63
2023/05/24 03:44:51;;;;;;;19.20;4.53;;;;;;;12.55;54.10;101086.34;4078617;29;20050;-62
2023/05/24 03:46:53;;;;;;;19.08;5.05;;;;;;;12.50;54.68;101084.50;4076109;29;20071;-62
2023/05/24 03:48:56;;;;;;;18.75;4.85;;;;;;;12.41;54.97;101087.84;4074980;29;20051;-62
2023/05/24 03:50:59;;;;;;;17.42;5.15;;;;;;;12.53;54.38;101089.81;4091041;29;20126;-61
2023/05/24 03:53:02;;;;;;;13.13;3.90;;;;;;;12.52;54.48;101086.28;4078595;29;20040;-62
2023/05/24 03:55:06;;;;;;;11.95;4.55;;;;;;;12.50;54.41;101080.19;4090239;28;20577;-62
2023/05/24 03:57:10;;;;;;;13.05;4.13;;;;;;;12.44;54.37;101085.31;4060324;29;20045;-62
2023/05/24 03:59:13;;;;;;;15.45;4.72;;;;;;;12.40;56.84;101081.75;4077484;29;20451;-57
2023/05/24 04:01:17;;;;;;;14.82;3.88;;;;;;;12.63;54.81;101083.88;4064730;29;20059;-62
2023/05/24 04:03:35;;;;;;;10.70;3.95;;;;;;;12.63;54.63;101082.97;4093719;29;20039;-62
2023/05/24 04:05:39;;;;;;;16.85;4.72;;;;;;;12.87;53.67;101082.50;4064568;29;20049;-62
2023/05/24 04:07:42;;;;;;;11.63;3.97;;;;;;;12.73;53.63;101082.25;4062051;29;20248;-61
2023/05/24 04:09:46;;;;;;;;;;;;;;;12.55;53.85;101080.25;4093795;29;20042;-61
2023/05/24 04:11:50;;;;;;;13.88;3.78;;;;;;;12.53;53.72;101088.06;4079351;29;19986;-61
2023/05/24 04:13:55;;;;;;;15.60;3.78;;;;;;;12.54;53.29;101089.81;4079520;29;20070;-63
2023/05/24 04:15:58;;;;;;;22.17;4.78;;;;;;;12.42;53.83;101088.75;4066620;29;20064;-63
2023/05/24 04:18:01;;;;;;;16.63;4.47;;;;;;;12.41;53.91;101087.84;4066541;29;20048;-63
2023/05/24 04:20:06;;;;;;;14.52;4.40;;;;;;;12.38;53.72;101088.69;4095492;29;20039;-63
2023/05/24 04:22:09;;;;;;;11.57;4.03;;;;;;;12.47;53.58;101089.69;4082007;29;20047;-63
2023/05/24 04:24:12;;;;;;;17.02;3.83;;;;;;;12.44;54.22;101085.31;4066754;29;20032;-63
2023/05/24 04:26:16;;;;;;;14.93;3.85;;;;;;;12.45;53.70;101094.88;4081023;29;20126;-63
2023/05/24 04:28:21;;;;;;;14.98;4.25;;;;;;;12.40;54.09;101091.31;4067062;29;20210;-63
2023/05/24 04:30:25;;;;;;;19.10;4.97;;;;;;;12.36;54.27;101079.94;4062819;29;20467;-63
2023/05/24 04:32:29;;;;;;;12.82;4.50;;;;;;;12.40;54.25;101086.97;4067811;29;20036;-63
2023/05/24 04:34:32;;;;;;;20.17;4.90;;;;;;;12.39;53.75;101092.16;4063750;29;20040;-63
2023/05/24 04:36:35;;;;;;;19.40;4.53;;;;;;;12.38;54.09;101100.84;4081750;29;20292;-64
2023/05/24 04:38:39;;;;;;;21.63;4.75;;;;;;;12.42;54.67;101089.59;4063684;29;20136;-63
2023/05/24 04:40:42;;;;;;;17.38;4.80;;;;;;;12.34;54.34;101091.22;4067387;29;20039;-64
2023/05/24 04:42:46;;;;;;;21.55;4.97;;;;;;;12.31;54.91;101085.94;4076870;29;20075;-64
2023/05/24 04:44:49;;;;;;;27.40;5.28;;;;;;;12.29;55.17;101091.13;4064085;29;20044;-63
2023/05/24 04:46:53;;;;;;;15.95;5.93;;;;;;;12.37;55.32;101086.94;4062774;29;20070;-64
2023/05/24 04:48:56;;;;;;;13.30;4.68;;;;;;;12.52;54.44;101094.13;4065069;29;20048;-64
2023/05/24 04:50:59;;;;;;;18.48;5.28;;;;;;;12.43;54.94;101096.59;4063896;29;20044;-64
2023/05/24 04:53:02;;;;;;;18.20;4.88;;;;;;;12.44;54.07;101110.50;4058104;29;20048;-63
2023/05/24 04:55:06;;;;;;;16.70;4.57;;;;;;;12.29;54.57;101098.94;4066175;29;20036;-64
2023/05/24 04:57:09;;;;;;;14.75;4.18;;;;;;;12.09;55.10;101111.66;4063998;29;20044;-63
2023/05/24 04:59:12;;;;;;;14.27;3.70;;;;;;;12.10;55.14;101112.50;4061517;29;20048;-63
2023/05/24 05:01:15;;;;;;;16.27;4.57;;;;;;;12.02;55.24;101107.16;4065541;29;20059;-64
2023/05/24 05:03:19;;;;;;;13.82;4.43;;;;;;;11.92;55.06;101111.28;4064801;29;20036;-64
2023/05/24 05:05:22;;;;;;;16.88;4.20;;;;;;;11.99;55.99;101104.50;4076385;29;20127;-63
2023/05/24 05:07:25;;;;;;;13.25;4.15;;;;;;;11.96;55.84;101109.63;4063800;29;20048;-63
2023/05/24 05:09:28;;;;;;;12.65;5.05;;;;;;;11.92;56.02;101113.03;4065114;29;20044;-63
2023/05/24 05:11:31;;;;;;;13.25;4.20;;;;;;;11.94;55.29;101116.56;4063221;29;20058;-63
2023/05/24 05:13:34;;;;;;;17.83;5.22;;;;;;;11.94;55.60;101120.03;4063461;29;20040;-63
2023/05/24 05:15:37;;;;;;;14.07;4.22;;;;;;;11.98;55.74;101118.38;4080235;29;20046;-63
2023/05/24 05:17:40;;;;;;;20.05;4.82;;;;;;;12.15;55.10;101124.78;4063081;29;20039;-63
2023/05/24 05:19:44;;;;;;;13.18;4.50;;;;;;;12.14;54.85;101128.22;4118270;23;20065;-76
2023/05/24 05:21:47;;;;;;;12.68;3.92;;;;;;;12.13;54.76;101125.59;4110389;28;20039;-74
2023/05/24 05:23:50;;;;;;;18.25;4.60;;;;;;;12.32;53.98;101114.63;4112925;28;20116;-74
2023/05/24 05:25:53;;;;;;;19.67;4.10;;;;;;;12.12;54.63;101116.91;4129683;28;20121;-75
2023/05/24 05:27:55;;;;;;;14.95;4.13;;;;;;;12.20;54.18;101104.00;4098753;28;20303;-74
2023/05/24 05:29:58;;;;;;;21.33;4.57;;;;;;;12.26;54.08;101111.06;4128039;28;20042;-75
2023/05/24 05:32:01;;;;;;;19.20;4.72;;;;;;;12.24;53.41;101121.47;4096570;28;20039;-74
2023/05/24 05:34:08;;;;;;;10.82;3.80;;;;;;;12.27;53.31;101112.81;4095143;28;20082;-75
2023/05/24 05:36:12;;;;;;;12.98;3.90;;;;;;;12.37;53.31;101110.41;4098099;29;20082;-74
2023/05/24 05:38:15;;;;;;;26.50;4.97;;;;;;;12.35;53.49;101119.94;4098578;28;20043;-74
2023/05/24 05:40:18;;;;;;;13.38;4.65;;;;;;;12.43;53.63;101121.78;4097059;28;20278;-74
2023/05/24 05:42:21;;;;;;;16.38;4.72;;;;;;;12.67;52.41;101121.31;4095592;29;20066;-74
2023/05/24 05:44:24;;;;;;;18.27;4.05;;;;;;;12.38;52.91;101122.59;4098496;28;20035;-73
2023/05/24 05:46:27;;;;;;;11.25;3.05;;;;;;;12.28;53.71;101125.00;4080104;29;20134;-74
2023/05/24 05:48:30;;;;;;;14.93;3.95;;;;;;;12.34;52.99;101123.38;4098164;28;20046;-74
2023/05/24 05:50:32;;;;;;;17.23;4.45;;;;;;;12.27;52.97;101121.50;4097307;28;20445;-75
2023/05/24 05:52:37;;;;;;;15.82;5.18;;;;;;;12.28;52.57;101117.16;4097968;28;20031;-74
2023/05/24 05:54:40;;;;;;;13.50;4.03;;;;;;;12.20;53.30;101114.44;4096226;29;20038;-75
2023/05/24 05:56:46;;;;;;;10.38;3.10;;;;;;;12.25;53.12;101132.75;4094789;29;20511;-75
2023/05/24 05:58:49;;;;;;;17.10;3.88;;;;;;;12.16;52.76;101120.44;4095959;29;20162;-74
2023/05/24 06:00:52;;;;;;;22.52;5.60;;;;;;;12.07;53.82;101131.56;4096997;29;20049;-75
2023/05/24 06:02:55;;;;;;;18.45;4.82;;;;;;;11.98;54.16;101142.69;4096499;28;20039;-75
2023/05/24 06:04:58;;;;;;;15.45;4.93;;;;;;;12.04;53.70;101134.97;4128412;28;20054;-72
2023/05/24 06:07:01;;;;;;;18.20;5.18;;;;;;;12.10;53.57;101134.22;4097386;28;20043;-74
2023/05/24 06:09:06;;;;;;;16.15;5.28;;;;;;;12.28;53.42;101143.22;4097727;28;20482;-75
2023/05/24 06:11:09;;;;;;;14.48;4.65;;;;;;;12.47;52.87;101134.00;4096221;29;20506;-74
2023/05/24 06:13:13;;;;;;;22.92;4.57;;;;;;;12.60;52.16;101137.72;4097390;29;20074;-74
2023/05/24 06:15:16;;;;;;;11.55;3.90;;;;;;;12.71;51.67;101130.94;4097825;28;20094;-75
2023/05/24 06:17:22;;;;;;;12.43;3.80;;;;;;;12.76;51.73;101137.09;4097799;28;20581;-75
2023/05/24 06:19:26;;;;;;;21.33;4.38;;;;;;;12.77;51.86;101138.88;4097078;28;20233;-75
2023/05/24 06:21:29;;;;;;;13.02;4.35;;;;;;;12.85;51.33;101132.06;4097520;28;20035;-74
2023/05/24 06:23:32;;;;;;;8.32;3.15;;;;;;;12.96;51.35;101147.00;4096634;28;20039;-75
2023/05/24 06:25:37;;;;;;;12.65;3.95;;;;;;;12.99;51.40;101145.28;4098091;29;20453;-75
2023/05/24 06:27:40;;;;;;;18.55;4.10;;;;;;;13.10;50.54;101140.25;4096511;28;20098;-74
2023/05/24 06:29:43;;;;;;;17.20;4.20;;;;;;;13.18;51.09;101136.00;4097414;28;20039;-74
2023/05/24 06:31:46;;;;;;;12.27;2.85;;;;;;;13.24;51.06;101146.56;4128288;28;20104;-74
2023/05/24 06:33:49;;;;;;;17.80;3.75;;;;;;;13.37;50.19;101136.31;4097914;28;20074;-74
2023/05/24 06:36:06;;;;;;;17.98;4.00;;;;;;;13.36;50.27;101145.88;4125255;28;20050;-74
2023/05/24 06:38:09;;;;;;;17.70;4.35;;;;;;;13.50;49.41;101146.06;4096693;28;20070;-74
2023/05/24 06:40:12;;;;;;;15.02;3.50;;;;;;;13.66;48.79;101141.03;4097656;28;20043;-74
2023/05/24 06:42:17;;;;;;;11.75;3.78;;;;;;;13.57;49.66;101147.88;4095684;28;20457;-74
2023/05/24 06:44:22;;;;;;;13.13;4.13;;;;;;;13.57;48.92;101145.28;4128200;28;20131;-74
2023/05/24 06:46:27;;;;;;;20.05;3.90;;;;;;;13.63;48.83;101144.47;4127762;28;20125;-74
2023/05/24 06:48:30;;;;;;;17.52;4.47;;;;;;;13.69;47.92;101146.28;4097339;28;20039;-76
2023/05/24 06:50:33;;;;;;;11.30;4.10;;;;;;;13.57;48.89;101147.88;4096126;28;20043;-75
2023/05/24 06:52:36;;;;;;;15.05;3.42;;;;;;;13.68;47.64;101147.16;4096304;28;20133;-75
2023/05/24 06:54:39;;;;;;;14.27;3.83;;;;;;;13.67;48.19;101148.00;4095755;28;20039;-73
2023/05/24 06:56:41;;;;;;;12.80;3.45;;;;;;;13.77;48.31;101152.50;4125683;28;20125;-73
2023/05/24 06:58:46;;;;;;;16.55;4.10;;;;;;;13.82;47.25;101144.72;4098092;28;20121;-75
2023/05/24 07:00:49;;;;;;;14.35;3.67;;;;;;;13.70;47.74;101146.31;4093952;29;20462;-75
2023/05/24 07:02:52;;;;;;;21.13;4.35;;;;;;;13.74;47.64;101152.44;4079992;29;20407;-75
2023/05/24 07:04:55;;;;;;;16.30;4.65;;;;;;;13.65;47.52;101152.34;4111354;28;20122;-75
2023/05/24 07:06:58;;;;;;;15.30;4.35;;;;;;;13.86;46.21;101152.59;4097128;28;20122;-75
2023/05/24 07:09:01;;;;;;;16.92;3.80;;;;;;;13.99;45.91;101157.97;4097450;28;20142;-74
2023/05/24 07:11:05;;;;;;;26.90;4.00;;;;;;;14.05;45.58;101160.66;4095976;29;20046;-75
2023/05/24 07:13:08;;;;;;;13.10;3.75;;;;;;;14.12;44.53;101154.66;4095571;28;20192;-74
2023/05/24 07:15:12;;;;;;;10.07;3.55;;;;;;;14.07;44.56;101161.56;4097528;28;20043;-74
2023/05/24 07:17:15;;;;;;;14.40;3.63;;;;;;;14.08;44.94;101160.69;4096429;28;20489;-75
2023/05/24 07:19:20;;;;;;;12.93;3.35;;;;;;;14.13;44.01;101164.22;4097337;28;20039;-74
2023/05/24 07:21:23;;;;;;;17.70;4.35;;;;;;;14.08;43.79;101171.16;4096967;29;20415;-73
2023/05/24 07:23:26;;;;;;;12.80;3.85;;;;;;;14.16;44.14;101161.63;4097184;29;20133;-76
2023/05/24 07:25:28;;;;;;;16.35;3.95;;;;;;;14.23;43.59;101168.69;4126429;28;20062;-76
2023/05/24 07:27:31;;;;;;;13.88;3.40;;;;;;;14.32;43.93;101165.28;4097049;28;20498;-74
2023/05/24 07:29:34;;;;;;;10.98;2.97;;;;;;;14.44;43.34;101164.53;4127677;28;20448;-75
2023/05/24 07:31:39;;;;;;;15.43;4.03;;;;;;;14.24;43.58;101173.06;4096208;29;20094;-75
2023/05/24 07:33:42;;;;;;;12.02;3.33;;;;;;;14.35;44.14;101164.47;4096169;28;20043;-73
2023/05/24 07:35:50;;;;;;;14.90;3.92;;;;;;;14.34;43.29;101165.31;4111899;28;20481;-75
2023/05/24 07:37:52;;;;;;;13.43;3.78;;;;;;;14.34;43.52;101160.97;4093932;28;20474;-75
2023/05/24 07:39:55;;;;;;;10.85;2.70;;;;;;;14.36;44.31;101158.38;4095441;28;20038;-75
2023/05/24 07:41:58;;;;;;;17.55;4.22;;;;;;;14.55;43.56;101160.28;4096056;28;20050;-75
2023/05/24 07:44:01;;;;;;;11.73;3.17;;;;;;;14.76;42.33;101164.88;4127993;28;20535;-74
2023/05/24 07:46:04;;;;;;;14.15;3.00;;;;;;;14.82;42.01;101158.78;4096445;28;20521;-74
2023/05/24 07:48:08;;;;;;;14.82;4.25;;;;;;;14.73;41.81;101154.34;4097636;28;20042;-74
2023/05/24 07:50:11;;;;;;;10.50;3.60;;;;;;;14.66;41.85;101157.81;4099579;28;20054;-75
2023/05/24 07:52:14;;;;;;;14.18;3.40;;;;;;;14.73;41.96;101156.09;4099849;29;20042;-74
2023/05/24 07:54:17;;;;;;;13.73;3.72;;;;;;;14.78;41.83;101157.91;4098751;28;20074;-73
2023/05/24 07:56:20;;;;;;;13.48;4.28;;;;;;;14.85;43.04;101153.59;4129919;28;20038;-74
2023/05/24 07:58:23;;;;;;;16.92;3.83;;;;;;;14.92;42.25;101157.13;4097812;29;20501;-72
2023/05/24 08:00:26;;;;;;;12.82;3.45;;;;;;;15.01;41.49;101152.84;4097425;28;20149;-74
2023/05/24 08:02:29;;;;;;;12.90;3.70;;;;;;;15.09;41.84;101152.91;4129669;28;20125;-74
2023/05/24 08:04:34;;;;;;;14.27;3.25;;;;;;;15.15;40.99;101152.06;4098930;28;20046;-75
2023/05/24 08:06:37;;;;;;;11.20;3.08;;;;;;;15.19;41.03;101153.84;4098762;29;20425;-75
2023/05/24 08:08:40;;;;;;;13.57;3.17;;;;;;;15.15;41.45;101157.31;4108361;29;20050;-73
2023/05/24 08:10:43;;;;;;;19.30;4.18;;;;;;;15.11;41.77;101150.28;4107498;29;20047;-74
2023/05/24 08:12:48;;;;;;;11.30;3.33;;;;;;;15.00;42.37;101148.47;4101784;29;20039;-74
2023/05/24 08:14:51;;;;;;;10.50;3.33;;;;;;;15.04;43.01;101145.88;4099319;29;20047;-74
2023/05/24 08:16:54;;;;;;;12.40;2.75;;;;;;;15.16;43.02;101151.19;4097027;28;20137;-74
2023/05/24 08:18:57;;;;;;;10.82;3.40;;;;;;;15.40;43.01;101152.22;4099604;28;20063;-74
2023/05/24 08:21:02;;;;;;;14.93;2.97;;;;;;;15.40;42.42;101152.22;4099324;28;20565;-74
2023/05/24 08:23:05;;;;;;;14.05;3.97;;;;;;;15.44;42.40;101148.75;4099491;29;20348;-75
2023/05/24 08:25:08;;;;;;;15.07;3.65;;;;;;;15.63;41.99;101147.94;4097860;29;20067;-74
2023/05/24 08:27:12;;;;;;;11.80;2.97;;;;;;;15.67;41.77;101157.59;4099508;28;20043;-75
2023/05/24 08:29:16;;;;;;;12.32;3.53;;;;;;;15.72;41.49;101160.22;4098750;28;20078;-74
2023/05/24 08:31:19;;;;;;;15.98;3.55;;;;;;;15.59;41.93;101154.03;4098014;28;20039;-74
2023/05/24 08:33:22;;;;;;;14.98;3.40;;;;;;;15.73;42.02;101153.25;4097391;28;20043;-74
2023/05/24 08:35:25;;;;;;;16.35;4.25;;;;;;;15.88;41.18;101155.94;4098092;29;20039;-75
2023/05/24 08:37:31;;;;;;;16.35;4.18;;;;;;;15.85;41.39;101150.69;4099182;28;20039;-75
2023/05/24 08:39:34;;;;;;;14.02;3.58;;;;;;;15.78;41.94;101149.78;4099075;28;20043;-75
2023/05/24 08:41:37;;;;;;;20.40;4.00;;;;;;;16.05;41.33;101151.63;4097904;29;20067;-74
2023/05/24 08:43:41;;;;;;;16.98;3.97;;;;;;;15.93;40.75;101164.72;4098167;29;20653;-74
2023/05/24 08:45:45;;;;;;;12.45;3.53;;;;;;;15.88;41.35;101156.81;4098219;28;20066;-75
2023/05/24 08:47:50;;;;;;;16.73;4.03;;;;;;;15.85;41.54;101150.69;4113824;28;20042;-75
2023/05/24 08:49:54;;;;;;;13.40;4.15;;;;;;;15.91;41.64;101158.56;4099506;28;20031;-74
2023/05/24 08:51:58;;;;;;;11.07;3.47;;;;;;;16.04;40.51;101168.22;4126289;28;20085;-74
2023/05/24 08:54:05;;;;;;;12.10;3.58;;;;;;;15.99;40.23;101169.09;4097239;29;20054;-74
2023/05/24 08:56:09;;;;;;;12.60;2.83;;;;;;;15.92;40.58;101165.59;4098528;28;20138;-74
2023/05/24 08:58:12;;;;;;;15.73;4.22;;;;;;;15.82;40.51;101176.91;4095939;28;20078;-74
2023/05/24 09:00:16;;;;;;;16.38;3.63;;;;;;;15.88;41.45;101175.16;4098257;28;20042;-73
2023/05/24 09:02:20;;;;;;;13.07;3.97;;;;;;;16.10;40.40;101170.00;4113690;28;20121;-75
2023/05/24 09:04:24;;;;;;;11.88;2.92;;;;;;;15.97;39.92;101169.06;4098841;28;20102;-74
2023/05/24 09:06:27;;;;;;;18.73;3.75;;;;;;;15.96;40.61;101171.69;4129432;28;20037;-72
2023/05/24 09:08:33;;;;;;;15.82;3.25;;;;;;;15.92;41.14;101181.31;4098533;28;20063;-74
2023/05/24 09:10:39;;;;;;;12.88;3.85;;;;;;;16.07;41.30;101177.00;4097403;28;20054;-75
2023/05/24 09:12:57;;;;;;;14.48;3.38;;;;;;;16.11;41.10;101173.53;4097078;29;20053;-75
2023/05/24 09:15:00;;;;;;;;;;;;;;;16.40;40.11;101174.44;4098382;28;20134;-75
2023/05/24 09:17:04;;;;;;;16.80;3.75;;;;;;;16.55;39.05;101164.84;4099057;29;20013;-73
2023/05/24 09:19:07;;;;;;;13.75;4.05;;;;;;;16.29;39.43;101172.69;4098478;28;20077;-75
2023/05/24 09:21:10;;;;;;;17.67;3.85;;;;;;;16.25;39.95;101165.66;4096617;29;20467;-75
2023/05/24 09:23:14;;;;;;;11.20;2.95;;;;;;;16.36;38.76;101154.31;4098801;28;20508;-74
2023/05/24 09:25:20;;;;;;;12.80;2.85;;;;;;;16.61;37.95;101164.84;4098020;28;20472;-75
2023/05/24 09:27:24;;;;;;;6.40;2.58;;;;;;;16.56;38.71;101156.09;4097162;29;20054;-75
2023/05/24 09:29:27;;;;;;;13.77;3.80;;;;;;;16.74;39.33;101161.34;4098506;28;20039;-74
2023/05/24 09:31:33;;;;;;;14.40;4.18;;;;;;;16.95;38.06;101156.13;4097428;28;20102;-73
2023/05/24 09:33:36;;;;;;;13.20;3.78;;;;;;;16.80;37.28;101154.34;4096898;29;20053;-75